createdAt,value
2018-04-25T00:00:48.287Z,1005.66
2018-04-25T00:01:57.504Z,1005.56
2018-04-25T00:03:06.988Z,1005.54
2018-04-25T00:04:16.735Z,1005.56
2018-04-25T00:05:26.018Z,1005.59
2018-04-25T00:06:35.232Z,1005.47
2018-04-25T00:07:44.716Z,1005.39
2018-04-25T00:08:53.934Z,1005.41
2018-04-25T00:10:03.428Z,1005.35
2018-04-25T00:11:13.473Z,1005.43
2018-04-25T00:12:22.957Z,1005.4
2018-04-25T00:13:32.452Z,1005.37
2018-04-25T00:14:41.933Z,1005.34
2018-04-25T00:15:51.463Z,1005.34
2018-04-25T00:17:01.452Z,1005.28
2018-04-25T00:18:11.214Z,1005.29
2018-04-25T00:19:20.160Z,1005.25
2018-04-25T00:20:29.641Z,1005.26
2018-04-25T00:21:38.862Z,1005.2
2018-04-25T00:22:48.343Z,1005.2
2018-04-25T00:23:57.828Z,1005.18
2018-04-25T00:25:07.049Z,1005.17
2018-04-25T00:26:16.805Z,1005.15
2018-04-25T00:27:26.291Z,1005.14
2018-04-25T00:28:35.768Z,1005.14
2018-04-25T00:29:44.996Z,1005.1
2018-04-25T00:30:54.218Z,1005.1
2018-04-25T00:32:03.713Z,1005.03
2018-04-25T00:33:13.202Z,1005.02
2018-04-25T00:34:22.686Z,1004.98
2018-04-25T00:35:32.174Z,1004.98
2018-04-25T00:36:41.401Z,1004.98
2018-04-25T00:37:50.620Z,1004.96
2018-04-25T00:39:00.101Z,1004.92
2018-04-25T00:40:09.588Z,1004.89
2018-04-25T00:41:19.603Z,1004.86
2018-04-25T00:42:28.826Z,1004.76
2018-04-25T00:43:38.307Z,1004.81
2018-04-25T00:44:47.786Z,1004.83
2018-04-25T00:45:57.539Z,1004.8
2018-04-25T00:47:07.286Z,1004.8
2018-04-25T00:48:17.035Z,1004.78
2018-04-25T00:49:26.794Z,1004.76
2018-04-25T00:50:36.012Z,1004.76
2018-04-25T00:51:44.959Z,1004.74
2018-04-25T00:52:54.712Z,1004.77
2018-04-25T00:54:04.207Z,1004.75
2018-04-25T00:55:13.961Z,1004.8
2018-04-25T00:56:22.648Z,1004.68
2018-04-25T00:57:32.132Z,1004.69
2018-04-25T00:58:41.676Z,1004.56
2018-04-25T00:59:51.428Z,1004.53
2018-04-25T01:01:00.718Z,1004.56
2018-04-25T01:02:10.227Z,1004.52
2018-04-25T01:03:19.708Z,1004.49
2018-04-25T01:04:28.654Z,1004.47
2018-04-25T01:05:38.140Z,1004.46
2018-04-25T01:06:48.221Z,1004.46
2018-04-25T01:07:57.161Z,1004.43
2018-04-25T01:09:06.913Z,1004.42
2018-04-25T01:10:16.404Z,1004.4
2018-04-25T01:11:25.888Z,1004.4
2018-04-25T01:12:35.377Z,1004.38
2018-04-25T01:13:45.388Z,1004.35
2018-04-25T01:14:54.872Z,1004.3
2018-04-25T01:16:04.099Z,1004.33
2018-04-25T01:17:14.114Z,1004.25
2018-04-25T01:18:24.130Z,1004.23
2018-04-25T01:19:33.609Z,1004.2
2018-04-25T01:20:43.095Z,1004.17
2018-04-25T01:21:52.455Z,1004.19
2018-04-25T01:23:01.667Z,1004.17
2018-04-25T01:24:11.420Z,1004.18
2018-04-25T01:25:20.637Z,1004.16
2018-04-25T01:26:30.125Z,1004.15
2018-04-25T01:27:39.882Z,1004.13
2018-04-25T01:28:49.364Z,1004.11
2018-04-25T01:29:58.580Z,1004.12
2018-04-25T01:31:07.798Z,1004.06
2018-04-25T01:32:17.019Z,1004.08
2018-04-25T01:33:25.967Z,1004.04
2018-04-25T01:34:35.458Z,1004.07
2018-04-25T01:35:45.216Z,1004.08
2018-04-25T01:36:54.432Z,1004.07
2018-04-25T01:38:03.649Z,1003.99
2018-04-25T01:39:13.132Z,1003.99
2018-04-25T01:40:22.356Z,1004
2018-04-25T01:41:31.569Z,1004
2018-04-25T01:42:40.786Z,1003.94
2018-04-25T01:43:50.274Z,1004.02
2018-04-25T01:45:00.031Z,1003.91
2018-04-25T01:46:09.823Z,1003.97
2018-04-25T01:47:19.581Z,1003.89
2018-04-25T01:48:28.797Z,1003.86
2018-04-25T01:49:38.550Z,1003.93
2018-04-25T01:50:48.033Z,1003.91
2018-04-25T01:51:57.253Z,1003.92
2018-04-25T01:53:06.740Z,1003.94
2018-04-25T01:54:16.219Z,1003.85
2018-04-25T01:55:26.240Z,1003.85
2018-04-25T01:56:35.455Z,1003.86
2018-04-25T01:57:44.941Z,1003.86
2018-04-25T01:58:54.700Z,1003.87
2018-04-25T02:00:03.912Z,1003.81
2018-04-25T02:01:13.406Z,1003.88
2018-04-25T02:02:23.169Z,1003.84
2018-04-25T02:03:32.917Z,1003.78
2018-04-25T02:04:42.408Z,1003.75
2018-04-25T02:05:51.626Z,1003.75
2018-04-25T02:07:01.474Z,1003.75
2018-04-25T02:08:10.962Z,1003.7
2018-04-25T02:09:20.447Z,1003.68
2018-04-25T02:10:29.959Z,1003.64
2018-04-25T02:11:39.444Z,1003.67
2018-04-25T02:12:48.659Z,1003.64
2018-04-25T02:13:58.154Z,1003.7
2018-04-25T02:15:07.098Z,1003.63
2018-04-25T02:16:17.120Z,1003.61
2018-04-25T02:17:26.603Z,1003.56
2018-04-25T02:18:36.629Z,1003.59
2018-04-25T02:19:46.121Z,1003.58
2018-04-25T02:20:55.672Z,1003.59
2018-04-25T02:22:05.163Z,1003.58
2018-04-25T02:23:14.378Z,1003.57
2018-04-25T02:24:23.867Z,1003.57
2018-04-25T02:25:33.357Z,1003.56
2018-04-25T02:26:42.304Z,1003.56
2018-04-25T02:27:51.788Z,1003.47
2018-04-25T02:29:01.537Z,1003.36
2018-04-25T02:30:11.291Z,1003.31
2018-04-25T02:31:21.317Z,1003.33
2018-04-25T02:32:30.904Z,1003.34
2018-04-25T02:33:40.927Z,1003.24
2018-04-25T02:34:50.425Z,1003.27
2018-04-25T02:36:00.184Z,1003.24
2018-04-25T02:37:09.422Z,1003.18
2018-04-25T02:38:19.189Z,1003.16
2018-04-25T02:39:28.944Z,1003.03
2018-04-25T02:40:38.713Z,1003.07
2018-04-25T02:41:48.773Z,1003.09
2018-04-25T02:42:58.259Z,1003.08
2018-04-25T02:44:08.001Z,1003.02
2018-04-25T02:45:17.780Z,1003.05
2018-04-25T02:46:27.542Z,1003.05
2018-04-25T02:47:37.305Z,1002.94
2018-04-25T02:48:46.787Z,1002.89
2018-04-25T02:49:56.288Z,1002.86
2018-04-25T02:51:05.780Z,1002.89
2018-04-25T02:52:15.263Z,1002.89
2018-04-25T02:53:25.286Z,1002.95
2018-04-25T02:54:35.044Z,1002.87
2018-04-25T02:55:44.531Z,1002.9
2018-04-25T02:56:54.018Z,1002.87
2018-04-25T02:58:03.507Z,1002.86
2018-04-25T02:59:13.545Z,1002.86
2018-04-25T03:00:23.328Z,1002.83
2018-04-25T03:01:33.193Z,1002.83
2018-04-25T03:02:42.721Z,1002.86
2018-04-25T03:03:52.494Z,1002.83
2018-04-25T03:05:02.004Z,1002.75
2018-04-25T03:06:12.036Z,1002.74
2018-04-25T03:07:21.266Z,1002.8
2018-04-25T03:08:30.760Z,1002.79
2018-04-25T03:09:40.279Z,1002.8
2018-04-25T03:10:50.041Z,1002.79
2018-04-25T03:11:59.533Z,1002.75
2018-04-25T03:13:09.038Z,1002.73
2018-04-25T03:14:18.271Z,1002.73
2018-04-25T03:15:27.514Z,1002.75
2018-04-25T03:16:37.021Z,1002.77
2018-04-25T03:17:47.098Z,1002.73
2018-04-25T03:18:56.327Z,1002.72
2018-04-25T03:20:06.093Z,1002.68
2018-04-25T03:21:15.855Z,1002.66
2018-04-25T03:22:25.098Z,1002.69
2018-04-25T03:23:34.724Z,1002.68
2018-04-25T03:24:44.496Z,1002.66
2018-04-25T03:25:54.259Z,1002.62
2018-04-25T03:27:04.293Z,1002.62
2018-04-25T03:28:14.342Z,1002.62
2018-04-25T03:29:24.112Z,1002.54
2018-04-25T03:30:33.876Z,1002.57
2018-04-25T03:31:43.382Z,1002.48
2018-04-25T03:32:53.449Z,1002.51
2018-04-25T03:34:03.212Z,1002.48
2018-04-25T03:35:12.707Z,1002.45
2018-04-25T03:36:22.201Z,1002.46
2018-04-25T03:37:31.706Z,1002.46
2018-04-25T03:38:40.937Z,1002.5
2018-04-25T03:39:50.437Z,1002.42
2018-04-25T03:41:00.224Z,1002.36
2018-04-25T03:42:10.666Z,1002.37
2018-04-25T03:43:20.435Z,1002.34
2018-04-25T03:44:29.667Z,1002.29
2018-04-25T03:45:38.897Z,1002.29
2018-04-25T03:46:48.390Z,1002.28
2018-04-25T03:47:58.154Z,1002.24
2018-04-25T03:49:07.106Z,1002.29
2018-04-25T03:50:16.600Z,1002.25
2018-04-25T03:51:26.370Z,1002.34
2018-04-25T03:52:35.592Z,1002.31
2018-04-25T03:53:45.367Z,1002.23
2018-04-25T03:54:54.873Z,1002.27
2018-04-25T03:56:04.101Z,1002.27
2018-04-25T03:57:13.333Z,1002.24
2018-04-25T03:58:22.560Z,1002.2
2018-04-25T03:59:32.059Z,1002.23
2018-04-25T04:00:41.555Z,1002.22
2018-04-25T04:01:51.311Z,1002.2
2018-04-25T04:03:01.074Z,1002.23
2018-04-25T04:04:10.310Z,1002.2
2018-04-25T04:05:19.806Z,1002.15
2018-04-25T04:06:29.036Z,1002.14
2018-04-25T04:07:38.266Z,1002.09
2018-04-25T04:08:47.494Z,1002.2
2018-04-25T04:09:56.998Z,1002.15
2018-04-25T04:11:06.237Z,1002.12
2018-04-25T04:12:15.193Z,1002.12
2018-04-25T04:13:24.951Z,1002.09
2018-04-25T04:14:34.445Z,1001.98
2018-04-25T04:15:43.668Z,1002.06
2018-04-25T04:16:53.164Z,1002.1
2018-04-25T04:18:02.923Z,1002.07
2018-04-25T04:19:12.413Z,1002.1
2018-04-25T04:20:21.907Z,1002.03
2018-04-25T04:21:31.408Z,1002.02
2018-04-25T04:22:40.915Z,1002.04
2018-04-25T04:23:50.144Z,1001.93
2018-04-25T04:24:59.374Z,1001.91
2018-04-25T04:26:08.892Z,1001.89
2018-04-25T04:27:18.117Z,1001.9
2018-04-25T04:28:27.074Z,1001.98
2018-04-25T04:29:36.301Z,1001.95
2018-04-25T04:30:45.801Z,1001.93
2018-04-25T04:31:55.304Z,1001.89
2018-04-25T04:33:04.268Z,1001.95
2018-04-25T04:34:14.042Z,1001.89
2018-04-25T04:35:23.533Z,1001.95
2018-04-25T04:36:32.757Z,1001.94
2018-04-25T04:37:42.252Z,1001.93
2018-04-25T04:38:52.284Z,1001.92
2018-04-25T04:40:01.511Z,1001.91
2018-04-25T04:41:10.734Z,1001.89
2018-04-25T04:42:19.967Z,1001.91
2018-04-25T04:43:29.467Z,1001.88
2018-04-25T04:44:38.693Z,1001.94
2018-04-25T04:45:48.186Z,1001.91
2018-04-25T04:46:57.952Z,1001.87
2018-04-25T04:48:07.451Z,1001.93
2018-04-25T04:49:16.945Z,1001.95
2018-04-25T04:50:26.197Z,1001.97
2018-04-25T04:51:35.423Z,1001.97
2018-04-25T04:52:44.918Z,1001.95
2018-04-25T04:53:54.430Z,1001.92
2018-04-25T04:55:03.921Z,1001.89
2018-04-25T04:56:12.897Z,1001.87
2018-04-25T04:57:22.656Z,1001.88
2018-04-25T04:58:31.881Z,1001.85
2018-04-25T04:59:41.980Z,1001.9
2018-04-25T05:00:51.627Z,1001.97
2018-04-25T05:02:01.398Z,1001.9
2018-04-25T05:03:10.358Z,1001.93
2018-04-25T05:04:19.585Z,1001.93
2018-04-25T05:05:29.168Z,1001.87
2018-04-25T05:06:38.666Z,1001.91
2018-04-25T05:07:47.893Z,1001.89
2018-04-25T05:08:57.386Z,1001.92
2018-04-25T05:10:06.618Z,1001.93
2018-04-25T05:11:15.849Z,1001.89
2018-04-25T05:12:25.618Z,1001.89
2018-04-25T05:13:35.115Z,1001.85
2018-04-25T05:14:44.337Z,1001.88
2018-04-25T05:15:53.830Z,1001.95
2018-04-25T05:17:03.652Z,1001.94
2018-04-25T05:18:13.682Z,1002.05
2018-04-25T05:19:23.189Z,1001.97
2018-04-25T05:20:32.690Z,1002.06
2018-04-25T05:21:42.186Z,1002.02
2018-04-25T05:22:51.685Z,1002.2
2018-04-25T05:24:01.722Z,1002.09
2018-04-25T05:25:10.940Z,1002.19
2018-04-25T05:26:20.440Z,1002.09
2018-04-25T05:27:29.944Z,1002.16
2018-04-25T05:28:39.167Z,1002.06
2018-04-25T05:29:47.861Z,1002.16
2018-04-25T05:30:56.818Z,1002.08
2018-04-25T05:32:06.134Z,1002.18
2018-04-25T05:33:16.233Z,1002.21
2018-04-25T05:34:25.459Z,1002.11
2018-04-25T05:35:34.421Z,1002.22
2018-04-25T05:36:44.190Z,1002.2
2018-04-25T05:37:53.975Z,1002.24
2018-04-25T05:39:02.664Z,1002.23
2018-04-25T05:40:12.443Z,1002.3
2018-04-25T05:41:21.403Z,1002.36
2018-04-25T05:42:30.627Z,1002.33
2018-04-25T05:43:40.661Z,1002.41
2018-04-25T05:44:50.431Z,1002.31
2018-04-25T05:45:59.938Z,1002.31
2018-04-25T05:47:09.770Z,1002.34
2018-04-25T05:48:19.260Z,1002.39
2018-04-25T05:49:29.018Z,1002.39
2018-04-25T05:50:38.253Z,1002.42
2018-04-25T05:51:47.230Z,1002.47
2018-04-25T05:52:57.173Z,1002.52
2018-04-25T05:54:06.402Z,1002.67
2018-04-25T05:55:15.367Z,1002.54
2018-04-25T05:56:25.132Z,1002.57
2018-04-25T05:57:34.991Z,1002.59
2018-04-25T05:58:44.211Z,1002.61
2018-04-25T05:59:53.437Z,1002.55
2018-04-25T06:01:02.664Z,1002.62
2018-04-25T06:02:12.164Z,1002.56
2018-04-25T06:03:21.654Z,1002.63
2018-04-25T06:04:31.162Z,1002.56
2018-04-25T06:05:40.997Z,1002.67
2018-04-25T06:06:50.220Z,1002.73
2018-04-25T06:07:59.177Z,1002.67
2018-04-25T06:09:08.671Z,1002.7
2018-04-25T06:10:18.430Z,1002.68
2018-04-25T06:11:27.658Z,1002.79
2018-04-25T06:12:37.473Z,1002.75
2018-04-25T06:13:47.386Z,1002.82
2018-04-25T06:14:56.884Z,1002.78
2018-04-25T06:16:06.378Z,1002.94
2018-04-25T06:17:15.883Z,1002.96
2018-04-25T06:18:25.122Z,1002.91
2018-04-25T06:19:34.612Z,1002.88
2018-04-25T06:20:43.851Z,1002.97
2018-04-25T06:21:53.354Z,1002.95
2018-04-25T06:23:02.582Z,1002.97
2018-04-25T06:24:11.809Z,1002.95
2018-04-25T06:25:21.574Z,1002.97
2018-04-25T06:26:30.877Z,1003.02
2018-04-25T06:27:40.248Z,1003.1
2018-04-25T06:28:49.205Z,1003.06
2018-04-25T06:29:58.434Z,1003.1
2018-04-25T06:31:07.665Z,1003.11
2018-04-25T06:32:17.162Z,1003.11
2018-04-25T06:33:26.647Z,1003.16
2018-04-25T06:34:35.875Z,1003.16
2018-04-25T06:35:45.381Z,1003.2
2018-04-25T06:36:54.869Z,1003.24
2018-04-25T06:38:04.106Z,1003.36
2018-04-25T06:39:13.332Z,1003.4
2018-04-25T06:40:23.194Z,1003.35
2018-04-25T06:41:32.974Z,1003.46
2018-04-25T06:42:42.196Z,1003.5
2018-04-25T06:43:51.971Z,1003.5
2018-04-25T06:45:01.294Z,1003.63
2018-04-25T06:46:11.648Z,1003.6
2018-04-25T06:47:20.875Z,1003.65
2018-04-25T06:48:30.371Z,1003.71
2018-04-25T06:49:39.860Z,1003.87
2018-04-25T06:50:49.627Z,1003.73
2018-04-25T06:51:59.387Z,1003.77
2018-04-25T06:53:08.890Z,1003.82
2018-04-25T06:54:18.119Z,1003.91
2018-04-25T06:55:27.345Z,1003.98
2018-04-25T06:56:36.842Z,1004.02
2018-04-25T06:57:47.240Z,1004.02
2018-04-25T06:58:56.739Z,1004.06
2018-04-25T07:00:05.999Z,1004.13
2018-04-25T07:01:15.493Z,1004.17
2018-04-25T07:02:25.257Z,1004.28
2018-04-25T07:03:35.017Z,1004.22
2018-04-25T07:04:44.509Z,1004.44
2018-04-25T07:05:54.275Z,1004.46
2018-04-25T07:07:03.504Z,1004.55
2018-04-25T07:08:12.764Z,1004.5
2018-04-25T07:09:22.674Z,1004.56
2018-04-25T07:10:31.902Z,1004.6
2018-04-25T07:11:41.395Z,1004.6
2018-04-25T07:12:51.167Z,1004.76
2018-04-25T07:14:00.481Z,1004.85
2018-04-25T07:15:09.441Z,1004.83
2018-04-25T07:16:19.203Z,1004.93
2018-04-25T07:17:28.978Z,1004.91
2018-04-25T07:18:38.477Z,1005.01
2018-04-25T07:19:48.251Z,1004.99
2018-04-25T07:20:57.474Z,1005.08
2018-04-25T07:22:06.701Z,1005.11
2018-04-25T07:23:16.468Z,1005.19
2018-04-25T07:24:25.699Z,1005.27
2018-04-25T07:25:35.459Z,1005.28
2018-04-25T07:26:45.226Z,1005.34
2018-04-25T07:27:55.001Z,1005.38
2018-04-25T07:29:04.495Z,1005.46
2018-04-25T07:30:13.994Z,1005.58
2018-04-25T07:31:23.759Z,1005.66
2018-04-25T07:32:33.248Z,1005.7
2018-04-25T07:33:43.017Z,1005.76
2018-04-25T07:34:53.045Z,1005.82
2018-04-25T07:36:02.274Z,1005.93
2018-04-25T07:37:11.242Z,1005.92
2018-04-25T07:38:20.743Z,1006.07
2018-04-25T07:39:29.972Z,1006
2018-04-25T07:40:39.541Z,1006.04
2018-04-25T07:41:49.324Z,1006.02
2018-04-25T07:42:59.810Z,1006.15
2018-04-25T07:44:09.580Z,1006.3
2018-04-25T07:45:19.082Z,1006.4
2018-04-25T07:46:29.118Z,1006.4
2018-04-25T07:47:38.615Z,1006.45
2018-04-25T07:48:48.385Z,1006.48
2018-04-25T07:49:57.871Z,1006.58
2018-04-25T07:51:06.831Z,1006.58
2018-04-25T07:52:16.109Z,1006.67
2018-04-25T07:53:25.676Z,1006.68
2018-04-25T07:54:35.448Z,1006.71
2018-04-25T07:55:44.671Z,1006.79
2018-04-25T07:56:53.902Z,1006.86
2018-04-25T07:58:02.860Z,1006.86
2018-04-25T07:59:12.085Z,1006.88
2018-04-25T08:00:21.579Z,1006.9
2018-04-25T08:01:31.352Z,1006.91
2018-04-25T08:02:41.381Z,1006.97
2018-04-25T08:03:50.612Z,1007.04
2018-04-25T08:04:59.840Z,1007.06
2018-04-25T08:06:09.071Z,1007.07
2018-04-25T08:07:18.300Z,1007.07
2018-04-25T08:08:28.071Z,1007.2
2018-04-25T08:09:37.831Z,1007.25
2018-04-25T08:10:47.053Z,1007.26
2018-04-25T08:11:56.281Z,1007.24
2018-04-25T08:13:05.312Z,1007.32
2018-04-25T08:14:15.078Z,1007.39
2018-04-25T08:15:24.301Z,1007.39
2018-04-25T08:16:33.789Z,1007.37
2018-04-25T08:17:43.027Z,1007.46
2018-04-25T08:18:52.869Z,1007.46
2018-04-25T08:20:02.633Z,1007.46
2018-04-25T08:21:12.129Z,1007.48
2018-04-25T08:22:21.352Z,1007.59
2018-04-25T08:23:30.848Z,1007.58
2018-04-25T08:24:40.384Z,1007.56
2018-04-25T08:25:49.879Z,1007.59
2018-04-25T08:26:59.377Z,1007.6
2018-04-25T08:28:09.409Z,1007.65
2018-04-25T08:29:18.637Z,1007.63
2018-04-25T08:30:27.589Z,1007.72
2018-04-25T08:31:37.091Z,1007.72
2018-04-25T08:32:46.874Z,1007.76
2018-04-25T08:33:56.375Z,1007.86
2018-04-25T08:35:05.870Z,1007.81
2018-04-25T08:36:15.097Z,1007.82
2018-04-25T08:37:24.864Z,1007.88
2018-04-25T08:38:34.625Z,1007.86
2018-04-25T08:39:43.864Z,1007.95
2018-04-25T08:40:53.350Z,1007.98
2018-04-25T08:42:02.307Z,1007.98
2018-04-25T08:43:11.534Z,1008.03
2018-04-25T08:44:21.571Z,1008.07
2018-04-25T08:45:30.797Z,1008.11
2018-04-25T08:46:39.755Z,1008.14
2018-04-25T08:47:48.975Z,1008.17
2018-04-25T08:48:58.732Z,1008.2
2018-04-25T08:50:07.691Z,1008.24
2018-04-25T08:51:16.918Z,1008.27
2018-04-25T08:52:26.430Z,1008.29
2018-04-25T08:53:35.926Z,1008.28
2018-04-25T08:54:45.154Z,1008.31
2018-04-25T08:55:54.643Z,1008.38
2018-04-25T08:57:04.138Z,1008.38
2018-04-25T08:58:13.636Z,1008.49
2018-04-25T08:59:23.149Z,1008.45
2018-04-25T09:00:32.381Z,1008.43
2018-04-25T09:01:41.879Z,1008.49
2018-04-25T09:02:51.110Z,1008.53
2018-04-25T09:04:00.341Z,1008.56
2018-04-25T09:05:09.829Z,1008.56
2018-04-25T09:06:19.596Z,1008.63
2018-04-25T09:07:28.854Z,1008.69
2018-04-25T09:08:38.639Z,1008.72
2018-04-25T09:09:48.408Z,1008.73
2018-04-25T09:10:57.908Z,1008.74
2018-04-25T09:12:06.595Z,1008.76
2018-04-25T09:13:16.386Z,1008.77
2018-04-25T09:14:25.671Z,1008.81
2018-04-25T09:15:34.928Z,1008.82
2018-04-25T09:16:44.175Z,1008.88
2018-04-25T09:17:53.674Z,1008.88
2018-04-25T09:19:02.903Z,1008.87
2018-04-25T09:20:12.701Z,1008.94
2018-04-25T09:21:22.714Z,1008.95
2018-04-25T09:22:32.215Z,1008.93
2018-04-25T09:23:41.175Z,1008.97
2018-04-25T09:24:50.671Z,1008.98
2018-04-25T09:25:59.924Z,1008.96
2018-04-25T09:27:09.964Z,1008.97
2018-04-25T09:28:18.925Z,1008.94
2018-04-25T09:29:28.429Z,1008.98
2018-04-25T09:30:37.931Z,1009
2018-04-25T09:31:47.702Z,1009.01
2018-04-25T09:32:56.661Z,1009.01
2018-04-25T09:34:06.165Z,1009.03
2018-04-25T09:35:15.927Z,1009.04
2018-04-25T09:36:25.456Z,1009.05
2018-04-25T09:37:34.402Z,1009.04
2018-04-25T09:38:43.358Z,1009.13
2018-04-25T09:39:52.850Z,1009.09
2018-04-25T09:41:02.341Z,1009.16
2018-04-25T09:42:12.099Z,1009.15
2018-04-25T09:43:21.602Z,1009.2
2018-04-25T09:44:30.823Z,1009.3
2018-04-25T09:45:40.578Z,1009.25
2018-04-25T09:46:50.072Z,1009.29
2018-04-25T09:47:59.829Z,1009.34
2018-04-25T09:49:09.602Z,1009.31
2018-04-25T09:50:19.657Z,1009.29
2018-04-25T09:51:28.883Z,1009.35
2018-04-25T09:52:38.108Z,1009.31
2018-04-25T09:53:47.599Z,1009.38
2018-04-25T09:54:57.361Z,1009.37
2018-04-25T09:56:06.869Z,1009.39
2018-04-25T09:57:16.372Z,1009.42
2018-04-25T09:58:26.243Z,1009.43
2018-04-25T09:59:35.473Z,1009.48
2018-04-25T10:00:44.973Z,1009.51
2018-04-25T10:01:54.472Z,1009.57
2018-04-25T10:03:03.959Z,1009.63
2018-04-25T10:04:13.189Z,1009.66
2018-04-25T10:05:22.683Z,1009.67
2018-04-25T10:06:31.914Z,1009.69
2018-04-25T10:07:41.948Z,1009.67
2018-04-25T10:08:51.177Z,1009.67
2018-04-25T10:10:00.397Z,1009.67
2018-04-25T10:11:09.899Z,1009.71
2018-04-25T10:12:19.669Z,1009.72
2018-04-25T10:13:28.893Z,1009.73
2018-04-25T10:14:38.128Z,1009.81
2018-04-25T10:15:47.888Z,1009.76
2018-04-25T10:16:57.464Z,1009.76
2018-04-25T10:18:07.276Z,1009.75
2018-04-25T10:19:16.505Z,1009.84
2018-04-25T10:20:25.738Z,1009.81
2018-04-25T10:21:34.427Z,1009.86
2018-04-25T10:22:43.651Z,1009.86
2018-04-25T10:23:52.911Z,1009.87
2018-04-25T10:25:02.196Z,1009.96
2018-04-25T10:26:11.427Z,1009.96
2018-04-25T10:27:20.913Z,1009.94
2018-04-25T10:28:30.142Z,1009.99
2018-04-25T10:29:40.175Z,1010
2018-04-25T10:30:49.669Z,1010.01
2018-04-25T10:31:58.918Z,1010.04
2018-04-25T10:33:09.201Z,1010.05
2018-04-25T10:34:18.695Z,1010.09
2018-04-25T10:35:27.963Z,1010.05
2018-04-25T10:36:37.465Z,1010.01
2018-04-25T10:37:46.959Z,1010.06
2018-04-25T10:38:56.511Z,1010.06
2018-04-25T10:40:05.496Z,1010.07
2018-04-25T10:41:15.250Z,1010.02
2018-04-25T10:42:24.472Z,1010.07
2018-04-25T10:43:34.231Z,1010.07
2018-04-25T10:44:43.460Z,1010.04
2018-04-25T10:45:52.685Z,1010.1
2018-04-25T10:47:02.181Z,1010.13
2018-04-25T10:48:11.672Z,1010.15
2018-04-25T10:49:21.708Z,1010.19
2018-04-25T10:50:31.199Z,1010.15
2018-04-25T10:51:40.696Z,1010.19
2018-04-25T10:52:50.458Z,1010.17
2018-04-25T10:53:59.412Z,1010.2
2018-04-25T10:55:08.909Z,1010.2
2018-04-25T10:56:18.200Z,1010.23
2018-04-25T10:57:27.692Z,1010.24
2018-04-25T10:58:36.915Z,1010.31
2018-04-25T10:59:46.412Z,1010.32
2018-04-25T11:00:56.172Z,1010.35
2018-04-25T11:02:05.668Z,1010.34
2018-04-25T11:03:14.626Z,1010.35
2018-04-25T11:04:23.925Z,1010.38
2018-04-25T11:05:34.002Z,1010.38
2018-04-25T11:06:43.498Z,1010.39
2018-04-25T11:07:52.730Z,1010.35
2018-04-25T11:09:01.957Z,1010.32
2018-04-25T11:10:11.736Z,1010.33
2018-04-25T11:11:20.961Z,1010.39
2018-04-25T11:12:30.470Z,1010.39
2018-04-25T11:13:39.433Z,1010.4
2018-04-25T11:14:48.930Z,1010.43
2018-04-25T11:15:58.425Z,1010.45
2018-04-25T11:17:07.922Z,1010.51
2018-04-25T11:18:17.684Z,1010.46
2018-04-25T11:19:27.442Z,1010.51
2018-04-25T11:20:36.984Z,1010.54
2018-04-25T11:21:45.943Z,1010.53
2018-04-25T11:22:55.177Z,1010.52
2018-04-25T11:24:04.399Z,1010.53
2018-04-25T11:25:13.622Z,1010.54
2018-04-25T11:26:22.842Z,1010.55
2018-04-25T11:27:32.359Z,1010.56
2018-04-25T11:28:41.853Z,1010.53
2018-04-25T11:29:51.085Z,1010.49
2018-04-25T11:31:00.311Z,1010.56
2018-04-25T11:32:09.274Z,1010.53
2018-04-25T11:33:17.963Z,1010.53
2018-04-25T11:34:27.196Z,1010.54
2018-04-25T11:35:36.692Z,1010.53
2018-04-25T11:36:46.187Z,1010.52
2018-04-25T11:37:55.150Z,1010.56
2018-04-25T11:39:04.915Z,1010.53
2018-04-25T11:40:13.605Z,1010.54
2018-04-25T11:41:23.365Z,1010.55
2018-04-25T11:42:32.602Z,1010.54
2018-04-25T11:43:41.830Z,1010.55
2018-04-25T11:44:51.592Z,1010.57
2018-04-25T11:46:01.351Z,1010.55
2018-04-25T11:47:11.219Z,1010.56
2018-04-25T11:48:20.864Z,1010.58
2018-04-25T11:49:30.364Z,1010.62
2018-04-25T11:50:39.865Z,1010.58
2018-04-25T11:51:49.092Z,1010.59
2018-04-25T11:52:58.319Z,1010.58
2018-04-25T11:54:07.282Z,1010.59
2018-04-25T11:55:16.785Z,1010.61
2018-04-25T11:56:25.745Z,1010.62
2018-04-25T11:57:35.244Z,1010.66
2018-04-25T11:58:44.463Z,1010.65
2018-04-25T11:59:53.975Z,1010.65
2018-04-25T12:01:03.472Z,1010.64
2018-04-25T12:02:12.970Z,1010.61
2018-04-25T12:03:22.459Z,1010.6
2018-04-25T12:04:32.220Z,1010.63
2018-04-25T12:05:41.982Z,1010.68
2018-04-25T12:06:52.031Z,1010.71
2018-04-25T12:08:01.253Z,1010.69
2018-04-25T12:09:10.741Z,1010.77
2018-04-25T12:10:20.234Z,1010.73
2018-04-25T12:11:29.529Z,1010.73
2018-04-25T12:12:39.293Z,1010.76
2018-04-25T12:13:48.522Z,1010.73
2018-04-25T12:14:58.088Z,1010.68
2018-04-25T12:16:08.122Z,1010.72
2018-04-25T12:17:17.616Z,1010.69
2018-04-25T12:18:26.306Z,1010.67
2018-04-25T12:19:35.532Z,1010.65
2018-04-25T12:20:44.761Z,1010.63
2018-04-25T12:21:54.262Z,1010.64
2018-04-25T12:23:03.222Z,1010.7
2018-04-25T12:24:12.720Z,1010.67
2018-04-25T12:25:22.940Z,1010.69
2018-04-25T12:26:32.442Z,1010.67
2018-04-25T12:27:41.403Z,1010.64
2018-04-25T12:28:50.628Z,1010.64
2018-04-25T12:29:59.587Z,1010.64
2018-04-25T12:31:08.273Z,1010.67
2018-04-25T12:32:17.777Z,1010.63
2018-04-25T12:33:27.007Z,1010.65
2018-04-25T12:34:36.228Z,1010.69
2018-04-25T12:35:45.783Z,1010.7
2018-04-25T12:36:55.555Z,1010.73
2018-04-25T12:38:05.335Z,1010.75
2018-04-25T12:39:14.566Z,1010.75
2018-04-25T12:40:24.068Z,1010.79
2018-04-25T12:41:34.192Z,1010.76
2018-04-25T12:42:44.682Z,1010.78
2018-04-25T12:43:54.193Z,1010.77
2018-04-25T12:45:03.420Z,1010.84
2018-04-25T12:46:12.911Z,1010.85
2018-04-25T12:47:22.141Z,1010.83
2018-04-25T12:48:31.896Z,1010.85
2018-04-25T12:49:41.657Z,1010.86
2018-04-25T12:50:50.887Z,1010.84
2018-04-25T12:52:00.390Z,1010.85
2018-04-25T12:53:09.345Z,1010.86
2018-04-25T12:54:18.921Z,1010.83
2018-04-25T12:55:28.690Z,1010.86
2018-04-25T12:56:37.919Z,1010.84
2018-04-25T12:57:47.428Z,1010.87
2018-04-25T12:58:56.657Z,1010.85
2018-04-25T13:00:05.881Z,1010.9
2018-04-25T13:01:15.116Z,1010.89
2018-04-25T13:02:24.619Z,1010.88
2018-04-25T13:03:34.114Z,1010.85
2018-04-25T13:04:44.141Z,1010.86
2018-04-25T13:05:53.095Z,1010.9
2018-04-25T13:07:02.860Z,1010.86
2018-04-25T13:08:12.886Z,1010.85
2018-04-25T13:09:22.432Z,1010.84
2018-04-25T13:10:31.657Z,1010.85
2018-04-25T13:11:41.221Z,1010.8
2018-04-25T13:12:50.714Z,1010.86
2018-04-25T13:13:59.751Z,1010.83
2018-04-25T13:15:09.275Z,1010.82
2018-04-25T13:16:18.900Z,1010.84
2018-04-25T13:17:28.136Z,1010.88
2018-04-25T13:18:37.892Z,1010.91
2018-04-25T13:19:47.116Z,1010.92
2018-04-25T13:20:56.608Z,1010.96
2018-04-25T13:22:06.105Z,1011
2018-04-25T13:23:15.869Z,1010.98
2018-04-25T13:24:25.114Z,1010.92
2018-04-25T13:25:34.603Z,1010.97
2018-04-25T13:26:44.099Z,1010.91
2018-04-25T13:27:54.124Z,1010.9
2018-04-25T13:29:03.080Z,1010.88
2018-04-25T13:30:12.848Z,1010.89
2018-04-25T13:31:22.611Z,1010.86
2018-04-25T13:32:31.568Z,1010.86
2018-04-25T13:33:41.329Z,1010.87
2018-04-25T13:34:50.819Z,1010.84
2018-04-25T13:36:00.850Z,1010.82
2018-04-25T13:37:10.086Z,1010.85
2018-04-25T13:38:19.855Z,1010.89
2018-04-25T13:39:28.817Z,1010.87
2018-04-25T13:40:38.051Z,1010.9
2018-04-25T13:41:47.545Z,1010.9
2018-04-25T13:42:57.039Z,1010.87
2018-04-25T13:44:06.529Z,1010.84
2018-04-25T13:45:16.293Z,1010.88
2018-04-25T13:46:25.798Z,1010.89
2018-04-25T13:47:35.562Z,1010.9
2018-04-25T13:48:45.337Z,1010.94
2018-04-25T13:49:54.298Z,1010.92
2018-04-25T13:51:02.985Z,1010.96
2018-04-25T13:52:12.476Z,1010.97
2018-04-25T13:53:21.699Z,1010.96
2018-04-25T13:54:31.187Z,1010.92
2018-04-25T13:55:40.411Z,1010.96
2018-04-25T13:56:49.905Z,1010.9
2018-04-25T13:57:59.671Z,1010.91
2018-04-25T13:59:08.900Z,1010.94
2018-04-25T14:00:18.395Z,1010.92
2018-04-25T14:01:28.161Z,1010.91
2018-04-25T14:02:37.663Z,1010.94
2018-04-25T14:03:46.886Z,1010.97